createdAt,value
2018-04-16T00:00:14.756Z,61.30
2018-04-16T00:02:44.705Z,61.20
2018-04-16T00:05:14.556Z,61.00
2018-04-16T00:07:43.628Z,61.00
2018-04-16T00:10:12.737Z,60.60
2018-04-16T00:12:41.816Z,60.40
2018-04-16T00:15:10.923Z,60.90
2018-04-16T00:17:40.477Z,61.20
2018-04-16T00:20:10.420Z,61.20
2018-04-16T00:22:40.297Z,61.50
2018-04-16T00:25:09.413Z,61.40
2018-04-16T00:27:38.559Z,61.80
2018-04-16T00:30:08.437Z,62.00
2018-04-16T00:32:43.155Z,61.90
2018-04-16T00:35:17.896Z,61.90
2018-04-16T00:37:52.616Z,61.90
2018-04-16T00:40:28.019Z,61.90
2018-04-16T00:43:02.613Z,61.90
2018-04-16T00:45:38.115Z,63.30
2018-04-16T00:48:12.829Z,63.20
2018-04-16T00:50:48.274Z,62.80
2018-04-16T00:53:23.017Z,62.80
2018-04-16T00:55:58.841Z,62.60
2018-04-16T01:01:37.863Z,62.60
2018-04-16T01:04:12.600Z,62.30
2018-04-16T01:06:47.292Z,62.70
2018-04-16T01:09:21.899Z,62.20
2018-04-16T01:11:57.487Z,63.00
2018-04-16T01:14:32.364Z,63.00
2018-04-16T01:17:07.134Z,63.20
2018-04-16T01:19:42.086Z,63.20
2018-04-16T01:22:16.918Z,64.10
2018-04-16T01:24:51.581Z,63.30
2018-04-16T01:30:31.214Z,63.90
2018-04-16T01:33:05.836Z,63.80
2018-04-16T01:35:40.429Z,64.50
2018-04-16T01:38:15.155Z,64.40
2018-04-16T01:40:49.915Z,64.60
2018-04-16T01:46:31.171Z,64.00
2018-04-16T01:49:05.871Z,64.20
2018-04-16T01:51:40.632Z,64.40
2018-04-16T01:54:16.124Z,64.00
2018-04-16T01:59:54.319Z,63.30
2018-04-16T02:02:28.908Z,63.90
2018-04-16T02:05:03.716Z,64.00
2018-04-16T02:07:38.406Z,63.60
2018-04-16T02:13:21.507Z,63.40
2018-04-16T02:15:56.186Z,63.50
2018-04-16T02:18:30.771Z,64.40
2018-04-16T02:21:06.413Z,64.20
2018-04-16T02:23:41.208Z,64.20
2018-04-16T02:26:15.901Z,64.30
2018-04-16T02:28:50.544Z,64.00
2018-04-16T02:31:25.239Z,63.40
2018-04-16T02:34:00.006Z,64.20
2018-04-16T02:36:34.668Z,64.00
2018-04-16T02:39:09.337Z,64.40
2018-04-16T02:41:44.021Z,64.20
2018-04-16T02:44:19.402Z,64.40
2018-04-16T02:46:54.400Z,64.50
2018-04-16T02:49:29.146Z,64.30
2018-04-16T02:52:03.939Z,64.90
2018-04-16T02:54:38.851Z,64.30
2018-04-16T02:57:13.537Z,64.50
2018-04-16T02:59:48.285Z,63.80
2018-04-16T03:02:23.020Z,64.80
2018-04-16T03:04:57.643Z,63.80
2018-04-16T03:07:32.347Z,63.20
2018-04-16T03:10:07.131Z,63.10
2018-04-16T03:12:41.938Z,62.60
2018-04-16T03:15:16.568Z,63.30
2018-04-16T03:17:51.305Z,63.40
2018-04-16T03:20:26.783Z,63.70
2018-04-16T03:23:01.292Z,63.70
2018-04-16T03:25:36.940Z,64.20
2018-04-16T03:28:11.444Z,64.00
2018-04-16T03:30:46.161Z,63.30
2018-04-16T03:33:20.680Z,62.80
2018-04-16T03:35:56.008Z,62.90
2018-04-16T03:38:30.627Z,62.20
2018-04-16T03:41:05.490Z,62.20
2018-04-16T03:43:40.402Z,62.90
2018-04-16T03:46:15.461Z,63.00
2018-04-16T03:48:50.052Z,62.90
2018-04-16T03:51:21.461Z,63.20
2018-04-16T03:53:50.551Z,62.40
2018-04-16T03:56:19.628Z,61.20
2018-04-16T03:58:48.736Z,61.50
2018-04-16T04:01:17.935Z,62.00
2018-04-16T04:03:46.994Z,61.90
2018-04-16T04:06:16.159Z,61.90
2018-04-16T04:08:45.244Z,61.80
2018-04-16T04:11:14.358Z,61.80
2018-04-16T04:13:43.444Z,61.50
2018-04-16T04:16:12.655Z,61.80
2018-04-16T04:18:41.776Z,61.60
2018-04-16T04:21:10.884Z,61.60
2018-04-16T04:23:57.917Z,62.00
2018-04-16T04:26:44.883Z,61.80
2018-04-16T04:29:31.953Z,62.20
2018-04-16T04:32:01.832Z,61.60
2018-04-16T04:34:31.727Z,61.50
2018-04-16T04:37:00.839Z,61.50
2018-04-16T04:39:29.949Z,61.40
2018-04-16T04:41:59.034Z,61.30
2018-04-16T04:44:28.964Z,61.00
2018-04-16T04:46:58.810Z,61.40
2018-04-16T04:49:27.883Z,61.40
2018-04-16T04:51:56.966Z,61.20
2018-04-16T04:54:26.119Z,61.00
2018-04-16T04:56:56.001Z,62.40
2018-04-16T04:59:25.881Z,63.40
2018-04-16T05:01:55.751Z,63.40
2018-04-16T05:04:24.937Z,63.30
2018-04-16T05:06:54.017Z,63.30
2018-04-16T05:09:23.136Z,63.00
2018-04-16T05:11:52.983Z,63.20
2018-04-16T05:14:22.063Z,63.20
2018-04-16T05:16:51.171Z,63.50
2018-04-16T05:19:20.280Z,63.50
2018-04-16T05:21:49.703Z,63.50
2018-04-16T05:24:18.786Z,63.00
2018-04-16T05:26:47.951Z,63.90
2018-04-16T05:29:17.090Z,63.50
2018-04-16T05:31:46.169Z,65.20
2018-04-16T05:34:15.273Z,64.60
2018-04-16T05:36:45.124Z,67.70
2018-04-16T05:39:14.235Z,67.60
2018-04-16T05:41:43.316Z,67.90
2018-04-16T05:44:13.159Z,65.90
2018-04-16T05:46:42.272Z,65.90
2018-04-16T05:49:11.355Z,66.10
2018-04-16T05:51:41.233Z,66.30
2018-04-16T05:54:10.354Z,65.50
2018-04-16T05:56:39.437Z,66.60
2018-04-16T05:59:08.548Z,67.60
2018-04-16T06:01:37.672Z,67.40
2018-04-16T06:04:06.784Z,67.10
2018-04-16T06:06:35.942Z,66.90
2018-04-16T06:09:05.881Z,66.80
2018-04-16T06:11:35.776Z,68.30
2018-04-16T06:14:04.894Z,68.20
2018-04-16T06:16:33.975Z,68.00
2018-04-16T06:19:03.088Z,66.70
2018-04-16T06:21:32.352Z,68.00
2018-04-16T06:24:02.231Z,68.20
2018-04-16T06:26:31.354Z,68.20
2018-04-16T06:31:14.315Z,69.50
2018-04-16T06:33:43.395Z,69.50
2018-04-16T06:36:12.508Z,70.40
2018-04-16T06:38:41.620Z,70.20
2018-04-16T06:41:10.735Z,71.40
2018-04-16T06:43:39.923Z,70.70
2018-04-16T06:46:09.011Z,71.40
2018-04-16T06:48:38.128Z,70.70
2018-04-16T06:51:07.999Z,70.90
2018-04-16T06:53:37.218Z,70.70
2018-04-16T06:56:06.303Z,72.60
2018-04-16T06:58:35.407Z,71.60
2018-04-16T07:01:04.568Z,72.80
2018-04-16T07:03:33.661Z,72.20
2018-04-16T07:06:02.786Z,71.20
2018-04-16T07:08:31.930Z,69.30
2018-04-16T07:11:01.856Z,70.40
2018-04-16T07:13:31.772Z,68.00
2018-04-16T07:16:00.918Z,67.90
2018-04-16T07:18:30.004Z,68.80
2018-04-16T07:20:59.092Z,68.00
2018-04-16T07:23:28.259Z,70.20
2018-04-16T07:25:57.348Z,70.00
2018-04-16T07:28:27.186Z,70.60
2018-04-16T07:30:56.299Z,70.50
2018-04-16T07:33:25.417Z,70.50
2018-04-16T07:35:54.518Z,70.30
2018-04-16T07:38:24.367Z,69.50
2018-04-16T07:40:53.548Z,69.40
2018-04-16T07:43:23.486Z,69.70
2018-04-16T07:45:53.364Z,70.70
2018-04-16T07:48:22.454Z,70.70
2018-04-16T07:50:51.530Z,71.30
2018-04-16T07:53:21.436Z,72.70
2018-04-16T07:55:50.514Z,72.70
2018-04-16T07:58:19.615Z,71.30
2018-04-16T08:00:48.728Z,70.10
2018-04-16T08:03:17.896Z,71.80
2018-04-16T08:05:47.769Z,73.60
2018-04-16T08:08:17.820Z,73.60
2018-04-16T08:10:46.899Z,73.70
2018-04-16T08:13:16.008Z,73.00
2018-04-16T08:15:45.181Z,73.40
2018-04-16T08:18:15.055Z,74.60
2018-04-16T08:20:44.172Z,74.60
2018-04-16T08:23:13.283Z,75.00
2018-04-16T08:25:42.470Z,73.00
2018-04-16T08:28:11.585Z,72.10
2018-04-16T08:30:40.695Z,73.30
2018-04-16T08:33:09.812Z,72.60
2018-04-16T08:35:38.925Z,73.50
2018-04-16T08:38:08.043Z,71.40
2018-04-16T08:40:37.132Z,73.40
2018-04-16T08:43:06.466Z,71.40
2018-04-16T08:45:35.543Z,70.80
2018-04-16T08:48:05.467Z,70.60
2018-04-16T08:50:35.339Z,70.50
2018-04-16T08:53:04.488Z,70.50
2018-04-16T08:55:33.687Z,70.30
2018-04-16T08:58:02.792Z,71.80
2018-04-16T09:00:32.673Z,70.40
2018-04-16T09:03:01.789Z,70.40
2018-04-16T09:05:30.875Z,70.60
2018-04-16T09:08:00.746Z,71.50
2018-04-16T09:10:29.934Z,71.50
2018-04-16T09:12:59.048Z,72.90
2018-04-16T09:15:28.162Z,73.70
2018-04-16T09:17:58.019Z,71.20
2018-04-16T09:20:27.176Z,70.40
2018-04-16T09:22:57.031Z,70.30
2018-04-16T09:25:26.141Z,70.20
2018-04-16T09:27:55.289Z,70.90
2018-04-16T09:30:24.370Z,69.40
2018-04-16T09:32:53.475Z,71.60
2018-04-16T09:35:22.594Z,70.50
2018-04-16T09:37:51.714Z,69.00
2018-04-16T09:40:20.871Z,68.80
2018-04-16T09:42:49.952Z,68.10
2018-04-16T09:45:19.063Z,69.40
2018-04-16T09:47:48.915Z,66.20
2018-04-16T09:50:18.054Z,66.90
2018-04-16T09:52:47.941Z,67.30
2018-04-16T09:55:18.650Z,68.10
2018-04-16T09:57:47.760Z,68.00
2018-04-16T10:00:17.727Z,67.20
2018-04-16T10:02:52.340Z,67.10
2018-04-16T10:05:21.620Z,67.50
2018-04-16T10:07:52.283Z,67.20
2018-04-16T10:10:21.370Z,67.20
2018-04-16T10:12:51.272Z,64.50
2018-04-16T10:15:20.351Z,64.50
2018-04-16T10:17:49.464Z,64.70
2018-04-16T10:20:18.554Z,63.60
2018-04-16T10:22:47.673Z,63.90
2018-04-16T10:25:16.755Z,64.20
2018-04-16T10:27:46.637Z,66.40
2018-04-16T10:30:15.719Z,66.20
2018-04-16T10:32:44.795Z,66.80
2018-04-16T10:35:13.906Z,66.90
2018-04-16T10:37:43.820Z,64.60
2018-04-16T10:40:12.964Z,64.80
2018-04-16T10:42:42.172Z,61.10
2018-04-16T10:45:11.298Z,60.00
2018-04-16T10:47:40.432Z,58.90
2018-04-16T10:50:09.558Z,58.60
2018-04-16T10:52:38.681Z,59.10
2018-04-16T10:55:07.776Z,58.10
2018-04-16T10:57:36.889Z,59.70
2018-04-16T11:00:05.996Z,57.30
2018-04-16T11:02:35.492Z,57.90
2018-04-16T11:05:04.684Z,58.90
2018-04-16T11:07:33.807Z,58.30
2018-04-16T11:10:02.887Z,57.90
2018-04-16T11:12:32.735Z,56.40
2018-04-16T11:15:01.849Z,56.40
2018-04-16T11:17:30.979Z,58.30
2018-04-16T11:20:00.080Z,56.10
2018-04-16T11:22:29.444Z,54.70
2018-04-16T11:24:58.522Z,56.10
2018-04-16T11:27:27.628Z,53.40
2018-04-16T11:29:56.744Z,54.30
2018-04-16T11:32:25.853Z,54.40
2018-04-16T11:34:54.938Z,54.60
2018-04-16T11:37:24.056Z,55.40
2018-04-16T11:39:53.139Z,54.60
2018-04-16T11:42:23.015Z,53.90
2018-04-16T11:44:52.119Z,53.80
2018-04-16T11:47:21.271Z,51.90
2018-04-16T11:49:50.414Z,52.80
2018-04-16T11:52:20.313Z,49.60
2018-04-16T11:54:49.391Z,49.60
2018-04-16T11:57:18.520Z,49.70
2018-04-16T11:59:47.627Z,50.60
2018-04-16T12:02:16.793Z,51.10
2018-04-16T12:04:46.716Z,51.00
2018-04-16T12:07:15.792Z,50.80
2018-04-16T12:09:44.948Z,49.70
2018-04-16T12:12:14.035Z,49.70
2018-04-16T12:14:43.908Z,49.50
2018-04-16T12:17:13.340Z,49.50
2018-04-16T12:19:42.460Z,50.90
2018-04-16T12:22:11.607Z,50.70
2018-04-16T12:24:41.480Z,51.20
2018-04-16T12:27:10.663Z,51.20
2018-04-16T12:29:39.735Z,49.40
2018-04-16T12:32:08.842Z,50.20
2018-04-16T12:34:37.915Z,49.40
2018-04-16T12:37:07.021Z,49.00
2018-04-16T12:39:36.176Z,49.40
2018-04-16T12:42:05.290Z,49.50
2018-04-16T12:44:35.142Z,47.90
2018-04-16T12:47:05.017Z,46.80
2018-04-16T12:49:34.192Z,46.80
2018-04-16T12:52:03.999Z,48.10
2018-04-16T12:54:34.041Z,48.80
2018-04-16T12:57:03.118Z,48.70
2018-04-16T12:59:32.199Z,49.10
2018-04-16T13:02:01.345Z,49.10
2018-04-16T13:04:30.523Z,49.20
2018-04-16T13:06:59.660Z,48.30
2018-04-16T13:09:28.741Z,48.70
2018-04-16T13:11:57.842Z,48.60
2018-04-16T13:14:27.192Z,49.30
2018-04-16T13:16:56.287Z,49.60
2018-04-16T13:19:25.404Z,49.90
2018-04-16T13:21:54.493Z,50.20
2018-04-16T13:24:23.598Z,49.40
2018-04-16T13:26:52.691Z,49.50
2018-04-16T13:29:21.804Z,48.60
2018-04-16T13:31:50.940Z,49.00
2018-04-16T13:34:20.824Z,49.50
2018-04-16T13:36:50.741Z,47.30
2018-04-16T13:39:19.831Z,47.20
2018-04-16T13:41:48.922Z,46.90
2018-04-16T13:44:18.000Z,47.80
2018-04-16T13:46:47.084Z,48.10
2018-04-16T13:49:16.938Z,47.90
2018-04-16T13:51:46.031Z,47.80
2018-04-16T13:54:15.897Z,48.20
2018-04-16T13:56:44.980Z,48.10
2018-04-16T13:59:14.089Z,48.60
2018-04-16T14:01:43.162Z,49.60
2018-04-16T14:04:12.271Z,50.50
2018-04-16T14:06:41.362Z,51.00
2018-04-16T14:09:11.480Z,50.40
2018-04-16T14:11:40.551Z,50.40
2018-04-16T14:14:10.420Z,52.00
2018-04-16T14:16:39.505Z,51.90
2018-04-16T14:19:08.608Z,51.70
2018-04-16T14:21:37.690Z,52.30
2018-04-16T14:24:06.768Z,52.40
2018-04-16T14:26:35.907Z,52.70
2018-04-16T14:29:05.020Z,52.60
2018-04-16T14:31:34.151Z,52.60
2018-04-16T14:34:04.002Z,52.40
2018-04-16T14:36:33.171Z,52.50
2018-04-16T14:39:02.327Z,52.40
2018-04-16T14:41:31.437Z,52.70
2018-04-16T14:44:00.521Z,52.50
2018-04-16T14:46:30.359Z,53.60
2018-04-16T14:49:00.803Z,54.20
2018-04-16T14:51:29.881Z,54.20
2018-04-16T14:53:59.050Z,55.40
2018-04-16T14:56:28.159Z,55.60
2018-04-16T14:58:57.299Z,55.70
2018-04-16T15:01:26.411Z,55.40
2018-04-16T15:03:55.545Z,55.40
2018-04-16T15:06:25.420Z,56.50
2018-04-16T15:08:54.836Z,56.50
2018-04-16T15:11:23.911Z,57.80
2018-04-16T15:13:53.763Z,58.80
2018-04-16T15:16:22.911Z,58.80
2018-04-16T15:18:52.031Z,60.90
2018-04-16T15:21:21.148Z,60.40
2018-04-16T15:23:50.268Z,60.80
2018-04-16T15:26:20.123Z,62.60
2018-04-16T15:28:49.232Z,62.60
2018-04-16T15:31:18.351Z,62.90
2018-04-16T15:33:47.473Z,64.30
2018-04-16T15:36:16.644Z,63.40
2018-04-16T15:38:46.532Z,63.20
2018-04-16T15:41:15.653Z,63.10
2018-04-16T15:43:44.805Z,63.50
2018-04-16T15:46:14.720Z,63.30
2018-04-16T15:48:44.606Z,63.70
2018-04-16T15:51:13.751Z,63.60
2018-04-16T15:53:42.840Z,63.80
2018-04-16T15:56:11.919Z,64.20
2018-04-16T15:58:41.027Z,65.80
2018-04-16T16:01:10.159Z,65.30
2018-04-16T16:03:39.286Z,64.60
2018-04-16T16:06:08.396Z,65.70
2018-04-16T16:08:37.512Z,66.20
2018-04-16T16:11:06.594Z,65.80
2018-04-16T16:13:35.705Z,66.80
2018-04-16T16:16:04.831Z,65.60
2018-04-16T16:18:34.712Z,66.70
2018-04-16T16:21:03.799Z,66.70
2018-04-16T16:23:33.687Z,67.20
2018-04-16T16:26:02.826Z,67.70
2018-04-16T16:28:31.911Z,67.20
2018-04-16T16:31:01.066Z,66.30
2018-04-16T16:33:30.915Z,66.70
2018-04-16T16:36:00.027Z,66.70
2018-04-16T16:38:29.151Z,66.90
2018-04-16T16:40:58.231Z,67.40
2018-04-16T16:43:28.108Z,66.80
2018-04-16T16:45:57.254Z,66.80
2018-04-16T16:48:26.405Z,68.30
2018-04-16T16:50:55.524Z,69.10
2018-04-16T16:53:24.605Z,69.10
2018-04-16T16:55:54.480Z,70.50
2018-04-16T16:58:23.668Z,70.40
2018-04-16T17:00:52.746Z,70.90
2018-04-16T17:03:22.591Z,71.50
2018-04-16T17:05:52.460Z,71.90
2018-04-16T17:08:21.643Z,71.90
2018-04-16T17:10:50.783Z,72.20
2018-04-16T17:13:19.898Z,72.30
2018-04-16T17:15:49.048Z,73.20
2018-04-16T17:18:18.897Z,73.50
2018-04-16T17:20:48.004Z,73.50
2018-04-16T17:23:17.092Z,73.90
2018-04-16T17:25:47.032Z,75.00
2018-04-16T17:28:16.908Z,74.90
2018-04-16T17:30:46.048Z,74.90
2018-04-16T17:33:15.196Z,75.90
2018-04-16T17:35:44.344Z,76.10
2018-04-16T17:38:13.414Z,75.90
2018-04-16T17:40:42.536Z,76.20
2018-04-16T17:43:11.623Z,76.60
2018-04-16T17:45:41.524Z,76.40
2018-04-16T17:48:10.648Z,76.40
2018-04-16T17:50:39.731Z,76.20
2018-04-16T17:53:08.885Z,76.70
2018-04-16T17:55:38.726Z,77.20
2018-04-16T17:58:08.609Z,78.00
2018-04-16T18:00:37.743Z,77.90
2018-04-16T18:03:07.629Z,78.40
2018-04-16T18:05:36.826Z,78.40
2018-04-16T18:08:05.933Z,78.50
2018-04-16T18:10:35.009Z,78.60
2018-04-16T18:13:05.840Z,79.90
2018-04-16T18:15:34.923Z,79.20
2018-04-16T18:18:04.003Z,79.20
2018-04-16T18:20:33.160Z,79.20
2018-04-16T18:23:02.242Z,79.70
2018-04-16T18:25:31.346Z,79.90
2018-04-16T18:28:00.425Z,80.20
2018-04-16T18:30:30.356Z,81.10
2018-04-16T18:32:59.506Z,81.10
2018-04-16T18:35:28.666Z,81.40
2018-04-16T18:37:57.778Z,81.60
2018-04-16T18:40:28.985Z,81.40
2018-04-16T18:42:58.068Z,81.30
2018-04-16T18:45:27.949Z,81.20
2018-04-16T18:47:57.143Z,81.20
2018-04-16T18:50:26.236Z,81.70
2018-04-16T18:52:55.371Z,81.40
2018-04-16T18:55:24.491Z,81.10
2018-04-16T18:57:53.633Z,81.40
2018-04-16T19:00:23.508Z,81.20
2018-04-16T19:02:52.636Z,80.80
2018-04-16T19:05:21.756Z,80.60
2018-04-16T19:07:50.886Z,80.80
2018-04-16T19:10:20.136Z,80.90
2018-04-16T19:12:49.220Z,81.10
2018-04-16T19:15:19.067Z,81.60
2018-04-16T19:17:53.864Z,81.50
2018-04-16T19:20:28.643Z,81.70
2018-04-16T19:22:58.487Z,81.40
2018-04-16T19:25:27.680Z,81.40
2018-04-16T19:28:02.299Z,81.60
2018-04-16T19:30:31.577Z,81.60
2018-04-16T19:33:06.199Z,81.40
2018-04-16T19:35:35.352Z,81.20
2018-04-16T19:38:04.431Z,81.30
2018-04-16T19:40:33.619Z,81.20
2018-04-16T19:43:03.522Z,80.30
2018-04-16T19:45:32.611Z,80.30
2018-04-16T19:48:01.841Z,79.70
2018-04-16T19:50:30.968Z,79.50
2018-04-16T19:53:00.814Z,79.80
2018-04-16T19:55:36.095Z,78.80
2018-04-16T19:58:10.830Z,78.80
2018-04-16T20:00:39.912Z,78.20
2018-04-16T20:03:15.477Z,74.10
2018-04-16T20:05:45.483Z,74.10
2018-04-16T20:08:14.570Z,74.10
2018-04-16T20:10:43.716Z,73.70
2018-04-16T20:13:13.618Z,74.00
2018-04-16T20:15:42.724Z,74.00
2018-04-16T20:18:11.838Z,72.90
2018-04-16T20:20:40.952Z,73.60
2018-04-16T20:23:10.069Z,72.50
2018-04-16T20:25:39.189Z,70.90
2018-04-16T20:28:08.277Z,69.10
2018-04-16T20:30:37.424Z,69.20
2018-04-16T20:33:07.361Z,67.00
2018-04-16T20:35:37.212Z,66.00
2018-04-16T20:38:06.340Z,65.90
2018-04-16T20:40:35.423Z,65.50
2018-04-16T20:43:04.587Z,64.00
2018-04-16T20:45:33.675Z,63.50
2018-04-16T20:48:02.809Z,63.10
2018-04-16T20:50:31.922Z,62.60
2018-04-16T20:53:01.092Z,62.10
2018-04-16T20:55:30.210Z,60.60
2018-04-16T20:57:59.316Z,61.40
2018-04-16T21:00:28.404Z,61.50
2018-04-16T21:02:58.345Z,61.50
2018-04-16T21:05:27.456Z,61.50
2018-04-16T21:07:56.610Z,62.10
2018-04-16T21:10:25.701Z,61.90
2018-04-16T21:12:54.820Z,62.10
2018-04-16T21:15:23.979Z,62.30
2018-04-16T21:17:54.073Z,62.60
2018-04-16T21:20:23.959Z,62.40
2018-04-16T21:22:53.119Z,62.40
2018-04-16T21:25:22.262Z,62.20
2018-04-16T21:27:52.323Z,63.40
2018-04-16T21:30:21.499Z,63.40
2018-04-16T21:32:50.676Z,63.40
2018-04-16T21:35:19.885Z,63.60
2018-04-16T21:37:49.016Z,64.50
2018-04-16T21:40:18.137Z,65.00
2018-04-16T21:42:47.251Z,65.40
2018-04-16T21:45:17.155Z,67.10
2018-04-16T21:47:46.316Z,66.80
2018-04-16T21:50:15.433Z,67.30
2018-04-16T21:52:44.653Z,67.80
2018-04-16T21:55:13.740Z,67.80
2018-04-16T21:57:43.580Z,67.80
2018-04-16T22:00:12.697Z,67.70
2018-04-16T22:02:41.816Z,67.80
2018-04-16T22:05:10.923Z,68.30
2018-04-16T22:07:40.031Z,68.60
2018-04-16T22:10:09.139Z,67.70
2018-04-16T22:12:38.311Z,68.70
2018-04-16T22:15:07.398Z,68.80
2018-04-16T22:17:36.478Z,68.20
2018-04-16T22:20:05.648Z,68.30
2018-04-16T22:22:34.731Z,67.60
2018-04-16T22:25:03.837Z,67.70
2018-04-16T22:27:32.947Z,68.50
2018-04-16T22:30:02.832Z,69.70
2018-04-16T22:32:32.679Z,69.60
2018-04-16T22:35:01.837Z,69.60
2018-04-16T22:37:30.928Z,69.90
2018-04-16T22:40:00.002Z,69.50
2018-04-16T22:42:29.076Z,69.90
2018-04-16T22:44:58.228Z,70.00
2018-04-16T22:47:27.315Z,70.10
2018-04-16T22:49:57.196Z,70.50
2018-04-16T22:52:26.312Z,70.40
2018-04-16T22:54:55.487Z,70.80
2018-04-16T22:57:24.596Z,71.00
2018-04-16T22:59:53.712Z,71.00
2018-04-16T23:02:22.819Z,70.80
2018-04-16T23:04:51.906Z,71.80
2018-04-16T23:07:21.789Z,72.00
2018-04-16T23:09:50.907Z,72.00
2018-04-16T23:12:19.999Z,72.00
2018-04-16T23:14:49.884Z,72.00
2018-04-16T23:17:20.111Z,72.00
2018-04-16T23:19:49.191Z,72.00
2018-04-16T23:22:18.350Z,71.90
2018-04-16T23:24:47.465Z,71.90
2018-04-16T23:27:16.546Z,71.90
2018-04-16T23:29:45.659Z,71.20
2018-04-16T23:32:15.523Z,71.90
2018-04-16T23:34:44.644Z,71.90
2018-04-16T23:37:13.735Z,71.20
2018-04-16T23:39:43.645Z,70.20
2018-04-16T23:42:12.718Z,70.20
2018-04-16T23:44:41.837Z,70.60
2018-04-16T23:47:10.954Z,69.70
2018-04-16T23:49:40.035Z,69.60
2018-04-16T23:52:09.150Z,70.20
2018-04-16T23:54:38.274Z,70.00
2018-04-16T23:57:08.135Z,68.50
2018-04-16T23:59:37.275Z,69.10
